sensor_id;sensor_type;location;lat;lon;timestamp;P1;durP1;ratioP1;P2;durP2;ratioP2
20084;SDS011;10202;48.474;9.138;2024-02-04T00:01:29;3.05;;;1.60;;
20084;SDS011;10202;48.474;9.138;2024-02-04T00:03:54;1.50;;;1.20;;
20084;SDS011;10202;48.474;9.138;2024-02-04T00:06:20;1.20;;;1.10;;
20084;SDS011;10202;48.474;9.138;2024-02-04T00:08:48;1.38;;;1.23;;
20084;SDS011;10202;48.474;9.138;2024-02-04T00:11:13;1.20;;;1.00;;
20084;SDS011;10202;48.474;9.138;2024-02-04T00:13:39;1.40;;;1.27;;
20084;SDS011;10202;48.474;9.138;2024-02-04T00:16:09;2.00;;;1.50;;
20084;SDS011;10202;48.474;9.138;2024-02-04T00:18:35;1.30;;;1.20;;
20084;SDS011;10202;48.474;9.138;2024-02-04T00:21:10;2.08;;;1.65;;
20084;SDS011;10202;48.474;9.138;2024-02-04T00:23:36;5.43;;;2.75;;
20084;SDS011;10202;48.474;9.138;2024-02-04T00:26:01;3.38;;;2.15;;
20084;SDS011;10202;48.474;9.138;2024-02-04T00:28:28;1.58;;;1.35;;
20084;SDS011;10202;48.474;9.138;2024-02-04T00:30:58;1.55;;;1.20;;
20084;SDS011;10202;48.474;9.138;2024-02-04T00:33:26;2.05;;;1.40;;
20084;SDS011;10202;48.474;9.138;2024-02-04T00:35:53;1.35;;;1.17;;
20084;SDS011;10202;48.474;9.138;2024-02-04T00:38:19;1.98;;;1.50;;
20084;SDS011;10202;48.474;9.138;2024-02-04T00:40:45;3.17;;;2.20;;
20084;SDS011;10202;48.474;9.138;2024-02-04T00:43:12;1.80;;;1.40;;
20084;SDS011;10202;48.474;9.138;2024-02-04T00:45:38;3.67;;;1.80;;
20084;SDS011;10202;48.474;9.138;2024-02-04T00:48:06;3.92;;;2.30;;
20084;SDS011;10202;48.474;9.138;2024-02-04T00:50:36;5.25;;;3.03;;
20084;SDS011;10202;48.474;9.138;2024-02-04T00:53:04;1.80;;;1.63;;
20084;SDS011;10202;48.474;9.138;2024-02-04T00:55:29;2.22;;;1.40;;
20084;SDS011;10202;48.474;9.138;2024-02-04T00:57:55;4.15;;;2.72;;
20084;SDS011;10202;48.474;9.138;2024-02-04T01:00:23;9.95;;;3.45;;
20084;SDS011;10202;48.474;9.138;2024-02-04T01:02:49;6.60;;;3.67;;
20084;SDS011;10202;48.474;9.138;2024-02-04T01:05:17;5.35;;;3.33;;
20084;SDS011;10202;48.474;9.138;2024-02-04T01:07:42;3.47;;;1.88;;
20084;SDS011;10202;48.474;9.138;2024-02-04T01:10:09;3.78;;;2.50;;
20084;SDS011;10202;48.474;9.138;2024-02-04T01:12:35;4.40;;;2.80;;
20084;SDS011;10202;48.474;9.138;2024-02-04T01:15:01;2.33;;;1.70;;
20084;SDS011;10202;48.474;9.138;2024-02-04T01:17:31;4.93;;;2.60;;
20084;SDS011;10202;48.474;9.138;2024-02-04T01:19:58;2.47;;;1.80;;
20084;SDS011;10202;48.474;9.138;2024-02-04T01:22:24;2.08;;;1.35;;
20084;SDS011;10202;48.474;9.138;2024-02-04T01:24:54;1.80;;;1.40;;
20084;SDS011;10202;48.474;9.138;2024-02-04T01:27:20;1.75;;;1.55;;
20084;SDS011;10202;48.474;9.138;2024-02-04T01:29:48;2.60;;;1.58;;
20084;SDS011;10202;48.474;9.138;2024-02-04T01:32:16;1.50;;;1.40;;
20084;SDS011;10202;48.474;9.138;2024-02-04T01:34:43;1.88;;;1.40;;
20084;SDS011;10202;48.474;9.138;2024-02-04T01:37:16;1.48;;;1.38;;
20084;SDS011;10202;48.474;9.138;2024-02-04T01:39:43;2.25;;;1.50;;
20084;SDS011;10202;48.474;9.138;2024-02-04T01:42:14;4.18;;;1.70;;
20084;SDS011;10202;48.474;9.138;2024-02-04T01:44:42;2.75;;;1.60;;
20084;SDS011;10202;48.474;9.138;2024-02-04T01:47:10;5.53;;;2.85;;
20084;SDS011;10202;48.474;9.138;2024-02-04T01:49:36;2.00;;;1.70;;
20084;SDS011;10202;48.474;9.138;2024-02-04T01:52:05;2.08;;;1.70;;
20084;SDS011;10202;48.474;9.138;2024-02-04T01:54:37;2.13;;;1.60;;
20084;SDS011;10202;48.474;9.138;2024-02-04T01:57:07;1.50;;;1.40;;
20084;SDS011;10202;48.474;9.138;2024-02-04T01:59:38;1.75;;;1.27;;
20084;SDS011;10202;48.474;9.138;2024-02-04T02:02:07;2.35;;;1.50;;
20084;SDS011;10202;48.474;9.138;2024-02-04T02:04:35;3.60;;;2.00;;
20084;SDS011;10202;48.474;9.138;2024-02-04T02:07:03;1.83;;;1.50;;
20084;SDS011;10202;48.474;9.138;2024-02-04T02:09:32;2.38;;;1.27;;
20084;SDS011;10202;48.474;9.138;2024-02-04T02:12:01;2.40;;;1.52;;
20084;SDS011;10202;48.474;9.138;2024-02-04T02:14:37;2.15;;;1.30;;
20084;SDS011;10202;48.474;9.138;2024-02-04T02:17:07;1.40;;;1.20;;
20084;SDS011;10202;48.474;9.138;2024-02-04T02:22:47;1.77;;;1.30;;
20084;SDS011;10202;48.474;9.138;2024-02-04T02:25:36;1.40;;;1.30;;
20084;SDS011;10202;48.474;9.138;2024-02-04T02:28:04;1.20;;;1.10;;
20084;SDS011;10202;48.474;9.138;2024-02-04T02:30:30;1.42;;;1.30;;
20084;SDS011;10202;48.474;9.138;2024-02-04T02:32:57;1.35;;;1.25;;
20084;SDS011;10202;48.474;9.138;2024-02-04T02:35:28;1.10;;;1.00;;
20084;SDS011;10202;48.474;9.138;2024-02-04T02:37:57;1.42;;;1.30;;
20084;SDS011;10202;48.474;9.138;2024-02-04T02:40:39;1.58;;;1.30;;
20084;SDS011;10202;48.474;9.138;2024-02-04T02:43:12;2.30;;;1.20;;
20084;SDS011;10202;48.474;9.138;2024-02-04T02:45:39;1.10;;;1.00;;
20084;SDS011;10202;48.474;9.138;2024-02-04T02:48:07;1.83;;;1.08;;
20084;SDS011;10202;48.474;9.138;2024-02-04T02:50:35;3.85;;;1.70;;
20084;SDS011;10202;48.474;9.138;2024-02-04T02:53:03;2.47;;;1.55;;
20084;SDS011;10202;48.474;9.138;2024-02-04T02:55:29;1.73;;;1.40;;
20084;SDS011;10202;48.474;9.138;2024-02-04T02:57:55;2.47;;;1.25;;
20084;SDS011;10202;48.474;9.138;2024-02-04T03:00:25;1.70;;;1.30;;
20084;SDS011;10202;48.474;9.138;2024-02-04T03:02:51;1.65;;;1.10;;
20084;SDS011;10202;48.474;9.138;2024-02-04T03:05:19;1.40;;;1.10;;
20084;SDS011;10202;48.474;9.138;2024-02-04T03:07:45;0.88;;;0.88;;
20084;SDS011;10202;48.474;9.138;2024-02-04T03:10:10;1.27;;;1.17;;
20084;SDS011;10202;48.474;9.138;2024-02-04T03:12:38;1.17;;;1.08;;
20084;SDS011;10202;48.474;9.138;2024-02-04T03:15:06;1.23;;;1.05;;
20084;SDS011;10202;48.474;9.138;2024-02-04T03:17:35;1.17;;;1.08;;
20084;SDS011;10202;48.474;9.138;2024-02-04T03:20:06;1.17;;;1.10;;
20084;SDS011;10202;48.474;9.138;2024-02-04T03:22:35;1.20;;;1.10;;
20084;SDS011;10202;48.474;9.138;2024-02-04T03:25:03;0.93;;;0.90;;
20084;SDS011;10202;48.474;9.138;2024-02-04T03:27:31;1.38;;;0.90;;
20084;SDS011;10202;48.474;9.138;2024-02-04T03:30:02;1.20;;;1.10;;
20084;SDS011;10202;48.474;9.138;2024-02-04T03:32:31;0.98;;;0.80;;
20084;SDS011;10202;48.474;9.138;2024-02-04T03:35:00;3.38;;;1.20;;
20084;SDS011;10202;48.474;9.138;2024-02-04T03:37:30;1.52;;;1.20;;
20084;SDS011;10202;48.474;9.138;2024-02-04T03:39:57;2.00;;;1.10;;
20084;SDS011;10202;48.474;9.138;2024-02-04T03:42:27;2.38;;;1.38;;
20084;SDS011;10202;48.474;9.138;2024-02-04T03:44:58;2.15;;;1.38;;
20084;SDS011;10202;48.474;9.138;2024-02-04T03:47:26;1.88;;;1.42;;
20084;SDS011;10202;48.474;9.138;2024-02-04T03:49:56;1.70;;;1.10;;
20084;SDS011;10202;48.474;9.138;2024-02-04T03:52:27;1.20;;;1.10;;
20084;SDS011;10202;48.474;9.138;2024-02-04T03:54:55;1.85;;;1.38;;
20084;SDS011;10202;48.474;9.138;2024-02-04T03:57:21;2.50;;;1.25;;
20084;SDS011;10202;48.474;9.138;2024-02-04T03:59:46;2.00;;;1.40;;
20084;SDS011;10202;48.474;9.138;2024-02-04T04:02:16;1.00;;;0.90;;
20084;SDS011;10202;48.474;9.138;2024-02-04T04:04:47;1.90;;;1.30;;
20084;SDS011;10202;48.474;9.138;2024-02-04T04:07:15;2.63;;;1.00;;
20084;SDS011;10202;48.474;9.138;2024-02-04T04:09:43;1.42;;;1.10;;
20084;SDS011;10202;48.474;9.138;2024-02-04T04:12:11;1.10;;;1.00;;
20084;SDS011;10202;48.474;9.138;2024-02-04T04:14:39;1.73;;;1.10;;
20084;SDS011;10202;48.474;9.138;2024-02-04T04:17:09;1.40;;;1.30;;
20084;SDS011;10202;48.474;9.138;2024-02-04T04:19:34;1.17;;;1.08;;
20084;SDS011;10202;48.474;9.138;2024-02-04T04:22:02;2.05;;;1.52;;
20084;SDS011;10202;48.474;9.138;2024-02-04T04:24:28;1.00;;;0.90;;
20084;SDS011;10202;48.474;9.138;2024-02-04T04:26:56;0.90;;;0.90;;
20084;SDS011;10202;48.474;9.138;2024-02-04T04:29:26;2.33;;;0.80;;
20084;SDS011;10202;48.474;9.138;2024-02-04T04:31:52;1.30;;;1.00;;
20084;SDS011;10202;48.474;9.138;2024-02-04T04:34:19;1.77;;;1.20;;
20084;SDS011;10202;48.474;9.138;2024-02-04T04:36:50;1.85;;;1.08;;
20084;SDS011;10202;48.474;9.138;2024-02-04T04:39:15;0.80;;;0.80;;
20084;SDS011;10202;48.474;9.138;2024-02-04T04:41:43;0.80;;;0.80;;
20084;SDS011;10202;48.474;9.138;2024-02-04T04:44:11;1.02;;;0.93;;
20084;SDS011;10202;48.474;9.138;2024-02-04T04:46:37;0.77;;;0.77;;
20084;SDS011;10202;48.474;9.138;2024-02-04T04:49:04;0.80;;;0.80;;
20084;SDS011;10202;48.474;9.138;2024-02-04T04:51:32;1.05;;;0.95;;
20084;SDS011;10202;48.474;9.138;2024-02-04T04:54:00;2.15;;;0.80;;
20084;SDS011;10202;48.474;9.138;2024-02-04T04:56:28;1.23;;;0.90;;
20084;SDS011;10202;48.474;9.138;2024-02-04T04:58:56;1.33;;;0.80;;
20084;SDS011;10202;48.474;9.138;2024-02-04T05:01:24;0.70;;;0.70;;
20084;SDS011;10202;48.474;9.138;2024-02-04T05:03:50;0.75;;;0.73;;
20084;SDS011;10202;48.474;9.138;2024-02-04T05:06:15;0.85;;;0.80;;
20084;SDS011;10202;48.474;9.138;2024-02-04T05:08:46;0.70;;;0.70;;
20084;SDS011;10202;48.474;9.138;2024-02-04T05:11:11;1.45;;;0.70;;
20084;SDS011;10202;48.474;9.138;2024-02-04T05:13:38;2.38;;;1.10;;
20084;SDS011;10202;48.474;9.138;2024-02-04T05:16:05;0.63;;;0.63;;
20084;SDS011;10202;48.474;9.138;2024-02-04T05:18:35;1.08;;;1.00;;
20084;SDS011;10202;48.474;9.138;2024-02-04T05:21:01;0.80;;;0.80;;
20084;SDS011;10202;48.474;9.138;2024-02-04T05:23:28;0.73;;;0.73;;
20084;SDS011;10202;48.474;9.138;2024-02-04T05:25:53;1.35;;;0.95;;
20084;SDS011;10202;48.474;9.138;2024-02-04T05:28:19;0.80;;;0.80;;
20084;SDS011;10202;48.474;9.138;2024-02-04T05:30:47;1.42;;;1.00;;
20084;SDS011;10202;48.474;9.138;2024-02-04T05:33:15;1.10;;;1.00;;
20084;SDS011;10202;48.474;9.138;2024-02-04T05:35:43;0.90;;;0.85;;
20084;SDS011;10202;48.474;9.138;2024-02-04T05:38:11;1.00;;;0.90;;
20084;SDS011;10202;48.474;9.138;2024-02-04T05:40:37;1.60;;;0.93;;
20084;SDS011;10202;48.474;9.138;2024-02-04T05:43:07;1.10;;;0.98;;
20084;SDS011;10202;48.474;9.138;2024-02-04T05:45:38;0.80;;;0.80;;
20084;SDS011;10202;48.474;9.138;2024-02-04T05:48:09;1.83;;;1.08;;
20084;SDS011;10202;48.474;9.138;2024-02-04T05:50:35;0.90;;;0.90;;
20084;SDS011;10202;48.474;9.138;2024-02-04T05:53:01;4.10;;;0.85;;
20084;SDS011;10202;48.474;9.138;2024-02-04T05:55:31;1.15;;;0.80;;
20084;SDS011;10202;48.474;9.138;2024-02-04T05:57:59;0.90;;;0.82;;
20084;SDS011;10202;48.474;9.138;2024-02-04T06:00:27;3.72;;;1.00;;
20084;SDS011;10202;48.474;9.138;2024-02-04T06:02:54;1.20;;;1.10;;
20084;SDS011;10202;48.474;9.138;2024-02-04T06:05:22;1.30;;;0.77;;
20084;SDS011;10202;48.474;9.138;2024-02-04T06:07:48;0.98;;;0.90;;
20084;SDS011;10202;48.474;9.138;2024-02-04T06:10:13;0.73;;;0.73;;
20084;SDS011;10202;48.474;9.138;2024-02-04T06:12:43;1.58;;;0.90;;
20084;SDS011;10202;48.474;9.138;2024-02-04T06:15:14;1.77;;;0.95;;
20084;SDS011;10202;48.474;9.138;2024-02-04T06:17:48;4.53;;;0.90;;
20084;SDS011;10202;48.474;9.138;2024-02-04T06:20:14;0.80;;;0.80;;
20084;SDS011;10202;48.474;9.138;2024-02-04T06:22:42;4.03;;;1.02;;
20084;SDS011;10202;48.474;9.138;2024-02-04T06:25:12;0.80;;;0.80;;
20084;SDS011;10202;48.474;9.138;2024-02-04T06:27:40;0.80;;;0.70;;
20084;SDS011;10202;48.474;9.138;2024-02-04T06:30:08;1.15;;;0.80;;
20084;SDS011;10202;48.474;9.138;2024-02-04T06:32:34;0.80;;;0.80;;
20084;SDS011;10202;48.474;9.138;2024-02-04T06:35:01;0.70;;;0.70;;
20084;SDS011;10202;48.474;9.138;2024-02-04T06:37:29;1.00;;;0.88;;
20084;SDS011;10202;48.474;9.138;2024-02-04T06:39:59;0.80;;;0.80;;
20084;SDS011;10202;48.474;9.138;2024-02-04T06:42:28;1.00;;;0.80;;
20084;SDS011;10202;48.474;9.138;2024-02-04T06:44:53;1.20;;;1.05;;
20084;SDS011;10202;48.474;9.138;2024-02-04T06:47:19;2.25;;;0.70;;
20084;SDS011;10202;48.474;9.138;2024-02-04T06:49:44;0.82;;;0.80;;
20084;SDS011;10202;48.474;9.138;2024-02-04T06:52:13;2.95;;;1.30;;
20084;SDS011;10202;48.474;9.138;2024-02-04T06:54:41;2.75;;;1.50;;
20084;SDS011;10202;48.474;9.138;2024-02-04T06:57:09;1.65;;;1.10;;
20084;SDS011;10202;48.474;9.138;2024-02-04T06:59:36;2.35;;;1.77;;
20084;SDS011;10202;48.474;9.138;2024-02-04T07:02:02;4.22;;;2.17;;
20084;SDS011;10202;48.474;9.138;2024-02-04T07:04:33;2.28;;;1.60;;
20084;SDS011;10202;48.474;9.138;2024-02-04T07:07:01;2.30;;;1.73;;
20084;SDS011;10202;48.474;9.138;2024-02-04T07:09:29;4.65;;;1.77;;
20084;SDS011;10202;48.474;9.138;2024-02-04T07:11:57;1.58;;;1.48;;
20084;SDS011;10202;48.474;9.138;2024-02-04T07:14:28;1.98;;;1.30;;
20084;SDS011;10202;48.474;9.138;2024-02-04T07:16:55;1.33;;;1.23;;
20084;SDS011;10202;48.474;9.138;2024-02-04T07:19:23;1.60;;;1.42;;
20084;SDS011;10202;48.474;9.138;2024-02-04T07:21:51;2.08;;;1.55;;
20084;SDS011;10202;48.474;9.138;2024-02-04T07:24:19;6.60;;;2.35;;
20084;SDS011;10202;48.474;9.138;2024-02-04T07:26:46;2.75;;;1.80;;
20084;SDS011;10202;48.474;9.138;2024-02-04T07:29:12;1.58;;;1.30;;
20084;SDS011;10202;48.474;9.138;2024-02-04T07:31:42;4.38;;;1.70;;
20084;SDS011;10202;48.474;9.138;2024-02-04T07:34:10;1.95;;;1.60;;
20084;SDS011;10202;48.474;9.138;2024-02-04T07:36:35;1.23;;;1.13;;
20084;SDS011;10202;48.474;9.138;2024-02-04T07:39:04;1.25;;;1.00;;
20084;SDS011;10202;48.474;9.138;2024-02-04T07:41:30;1.20;;;1.08;;
20084;SDS011;10202;48.474;9.138;2024-02-04T07:43:56;4.15;;;1.80;;
20084;SDS011;10202;48.474;9.138;2024-02-04T07:46:24;1.65;;;1.52;;
20084;SDS011;10202;48.474;9.138;2024-02-04T07:48:52;1.92;;;1.70;;
20084;SDS011;10202;48.474;9.138;2024-02-04T07:51:21;1.42;;;1.30;;
20084;SDS011;10202;48.474;9.138;2024-02-04T07:53:51;2.30;;;1.50;;
20084;SDS011;10202;48.474;9.138;2024-02-04T07:56:17;1.33;;;1.23;;
20084;SDS011;10202;48.474;9.138;2024-02-04T07:58:47;4.18;;;2.78;;
20084;SDS011;10202;48.474;9.138;2024-02-04T08:01:15;1.73;;;1.40;;
20084;SDS011;10202;48.474;9.138;2024-02-04T08:03:43;3.60;;;1.30;;
20084;SDS011;10202;48.474;9.138;2024-02-04T08:06:08;1.02;;;0.95;;
20084;SDS011;10202;48.474;9.138;2024-02-04T08:08:36;1.30;;;1.02;;
20084;SDS011;10202;48.474;9.138;2024-02-04T08:11:02;1.52;;;1.30;;
20084;SDS011;10202;48.474;9.138;2024-02-04T08:13:30;1.55;;;1.20;;
20084;SDS011;10202;48.474;9.138;2024-02-04T08:15:58;1.45;;;1.35;;
20084;SDS011;10202;48.474;9.138;2024-02-04T08:18:30;3.75;;;1.90;;
20084;SDS011;10202;48.474;9.138;2024-02-04T08:20:58;5.70;;;1.35;;
20084;SDS011;10202;48.474;9.138;2024-02-04T08:23:24;1.15;;;1.02;;
20084;SDS011;10202;48.474;9.138;2024-02-04T08:25:51;1.40;;;1.25;;
20084;SDS011;10202;48.474;9.138;2024-02-04T08:28:17;1.42;;;1.17;;
20084;SDS011;10202;48.474;9.138;2024-02-04T08:30:43;2.33;;;1.00;;
20084;SDS011;10202;48.474;9.138;2024-02-04T08:33:13;2.13;;;0.95;;
20084;SDS011;10202;48.474;9.138;2024-02-04T08:35:38;2.08;;;1.08;;
20084;SDS011;10202;48.474;9.138;2024-02-04T08:38:06;1.75;;;1.30;;
20084;SDS011;10202;48.474;9.138;2024-02-04T08:40:31;1.52;;;1.13;;
20084;SDS011;10202;48.474;9.138;2024-02-04T08:42:57;1.20;;;1.10;;
20084;SDS011;10202;48.474;9.138;2024-02-04T08:45:25;1.20;;;0.90;;
20084;SDS011;10202;48.474;9.138;2024-02-04T08:47:53;1.10;;;1.00;;
20084;SDS011;10202;48.474;9.138;2024-02-04T08:50:18;1.15;;;1.05;;
20084;SDS011;10202;48.474;9.138;2024-02-04T08:52:47;1.08;;;0.90;;
20084;SDS011;10202;48.474;9.138;2024-02-04T08:55:12;4.13;;;0.90;;
20084;SDS011;10202;48.474;9.138;2024-02-04T08:57:40;0.75;;;0.75;;
20084;SDS011;10202;48.474;9.138;2024-02-04T09:00:10;3.50;;;2.00;;
20084;SDS011;10202;48.474;9.138;2024-02-04T09:02:37;3.55;;;1.00;;
20084;SDS011;10202;48.474;9.138;2024-02-04T09:05:03;2.05;;;1.42;;
20084;SDS011;10202;48.474;9.138;2024-02-04T09:07:37;3.35;;;1.35;;
20084;SDS011;10202;48.474;9.138;2024-02-04T09:10:04;2.70;;;1.40;;
20084;SDS011;10202;48.474;9.138;2024-02-04T09:12:33;2.40;;;1.02;;
20084;SDS011;10202;48.474;9.138;2024-02-04T09:14:58;0.93;;;0.93;;
20084;SDS011;10202;48.474;9.138;2024-02-04T09:17:24;0.98;;;0.80;;
20084;SDS011;10202;48.474;9.138;2024-02-04T09:19:52;0.73;;;0.73;;
20084;SDS011;10202;48.474;9.138;2024-02-04T09:22:18;1.17;;;1.00;;
20084;SDS011;10202;48.474;9.138;2024-02-04T09:24:51;2.33;;;0.90;;
20084;SDS011;10202;48.474;9.138;2024-02-04T09:27:16;1.15;;;1.02;;
20084;SDS011;10202;48.474;9.138;2024-02-04T09:29:42;1.00;;;0.90;;
20084;SDS011;10202;48.474;9.138;2024-02-04T09:32:08;2.10;;;0.80;;
20084;SDS011;10202;48.474;9.138;2024-02-04T09:34:34;1.40;;;1.15;;
20084;SDS011;10202;48.474;9.138;2024-02-04T09:37:04;1.73;;;1.17;;
20084;SDS011;10202;48.474;9.138;2024-02-04T09:39:32;3.10;;;1.58;;
20084;SDS011;10202;48.474;9.138;2024-02-04T09:41:57;2.65;;;1.40;;
20084;SDS011;10202;48.474;9.138;2024-02-04T09:44:26;1.88;;;1.35;;
20084;SDS011;10202;48.474;9.138;2024-02-04T09:46:51;2.90;;;1.52;;
20084;SDS011;10202;48.474;9.138;2024-02-04T09:49:18;1.50;;;0.88;;
20084;SDS011;10202;48.474;9.138;2024-02-04T09:51:44;2.05;;;1.00;;
20084;SDS011;10202;48.474;9.138;2024-02-04T09:54:13;0.90;;;0.85;;
20084;SDS011;10202;48.474;9.138;2024-02-04T09:56:39;0.60;;;0.60;;
20084;SDS011;10202;48.474;9.138;2024-02-04T09:59:05;1.98;;;0.90;;
20084;SDS011;10202;48.474;9.138;2024-02-04T10:01:35;1.27;;;0.85;;
20084;SDS011;10202;48.474;9.138;2024-02-04T10:04:01;1.77;;;0.75;;
20084;SDS011;10202;48.474;9.138;2024-02-04T10:06:27;1.98;;;0.75;;
20084;SDS011;10202;48.474;9.138;2024-02-04T10:08:52;0.93;;;0.80;;
20084;SDS011;10202;48.474;9.138;2024-02-04T10:11:18;0.52;;;0.52;;
20084;SDS011;10202;48.474;9.138;2024-02-04T10:13:44;0.63;;;0.60;;
20084;SDS011;10202;48.474;9.138;2024-02-04T10:16:15;4.65;;;0.80;;
20084;SDS011;10202;48.474;9.138;2024-02-04T10:18:44;1.48;;;0.80;;
20084;SDS011;10202;48.474;9.138;2024-02-04T10:21:20;0.55;;;0.55;;
20084;SDS011;10202;48.474;9.138;2024-02-04T10:23:49;0.68;;;0.68;;
20084;SDS011;10202;48.474;9.138;2024-02-04T10:26:16;1.05;;;0.60;;
20084;SDS011;10202;48.474;9.138;2024-02-04T10:28:44;5.85;;;1.15;;
20084;SDS011;10202;48.474;9.138;2024-02-04T10:31:12;0.60;;;0.60;;
20084;SDS011;10202;48.474;9.138;2024-02-04T10:33:41;1.00;;;0.70;;
20084;SDS011;10202;48.474;9.138;2024-02-04T10:36:06;0.98;;;0.68;;
20084;SDS011;10202;48.474;9.138;2024-02-04T10:38:38;0.82;;;0.70;;
20084;SDS011;10202;48.474;9.138;2024-02-04T10:41:03;1.08;;;0.80;;
20084;SDS011;10202;48.474;9.138;2024-02-04T10:43:32;0.57;;;0.55;;
20084;SDS011;10202;48.474;9.138;2024-02-04T10:46:20;1.13;;;1.00;;
20084;SDS011;10202;48.474;9.138;2024-02-04T10:48:48;1.23;;;0.70;;
20084;SDS011;10202;48.474;9.138;2024-02-04T10:51:26;0.65;;;0.65;;
20084;SDS011;10202;48.474;9.138;2024-02-04T10:53:55;0.63;;;0.63;;
20084;SDS011;10202;48.474;9.138;2024-02-04T10:58:49;2.30;;;1.10;;
20084;SDS011;10202;48.474;9.138;2024-02-04T11:01:20;0.63;;;0.60;;
20084;SDS011;10202;48.474;9.138;2024-02-04T11:03:47;0.80;;;0.77;;
20084;SDS011;10202;48.474;9.138;2024-02-04T11:06:15;1.17;;;0.82;;
20084;SDS011;10202;48.474;9.138;2024-02-04T11:08:42;1.08;;;0.57;;
20084;SDS011;10202;48.474;9.138;2024-02-04T11:11:08;2.75;;;1.20;;
20084;SDS011;10202;48.474;9.138;2024-02-04T11:13:34;1.65;;;1.10;;
20084;SDS011;10202;48.474;9.138;2024-02-04T11:16:01;2.92;;;1.00;;
20084;SDS011;10202;48.474;9.138;2024-02-04T11:18:40;1.13;;;0.73;;
20084;SDS011;10202;48.474;9.138;2024-02-04T11:27:03;1.15;;;0.80;;
20084;SDS011;10202;48.474;9.138;2024-02-04T11:29:29;0.82;;;0.40;;
20084;SDS011;10202;48.474;9.138;2024-02-04T11:31:55;1.10;;;0.80;;
20084;SDS011;10202;48.474;9.138;2024-02-04T11:34:22;3.80;;;0.57;;
20084;SDS011;10202;48.474;9.138;2024-02-04T11:36:48;0.80;;;0.57;;
20084;SDS011;10202;48.474;9.138;2024-02-04T11:39:15;1.88;;;0.88;;
20084;SDS011;10202;48.474;9.138;2024-02-04T11:41:49;2.17;;;0.80;;
20084;SDS011;10202;48.474;9.138;2024-02-04T11:44:21;1.15;;;0.75;;
20084;SDS011;10202;48.474;9.138;2024-02-04T11:46:51;2.38;;;0.60;;
20084;SDS011;10202;48.474;9.138;2024-02-04T11:49:17;1.92;;;1.20;;
20084;SDS011;10202;48.474;9.138;2024-02-04T11:51:50;2.42;;;0.77;;
20084;SDS011;10202;48.474;9.138;2024-02-04T11:54:17;4.03;;;1.15;;
20084;SDS011;10202;48.474;9.138;2024-02-04T11:56:48;1.77;;;0.75;;
20084;SDS011;10202;48.474;9.138;2024-02-04T11:59:18;1.83;;;0.75;;
20084;SDS011;10202;48.474;9.138;2024-02-04T12:01:49;0.90;;;0.50;;
20084;SDS011;10202;48.474;9.138;2024-02-04T12:04:18;1.13;;;0.60;;
20084;SDS011;10202;48.474;9.138;2024-02-04T12:06:45;1.42;;;0.80;;
20084;SDS011;10202;48.474;9.138;2024-02-04T12:09:11;3.58;;;1.17;;
20084;SDS011;10202;48.474;9.138;2024-02-04T12:11:37;7.10;;;1.10;;
20084;SDS011;10202;48.474;9.138;2024-02-04T12:14:07;3.10;;;1.17;;
20084;SDS011;10202;48.474;9.138;2024-02-04T12:16:33;3.72;;;0.90;;
20084;SDS011;10202;48.474;9.138;2024-02-04T12:19:02;0.73;;;0.65;;
20084;SDS011;10202;48.474;9.138;2024-02-04T12:21:29;2.65;;;1.45;;
20084;SDS011;10202;48.474;9.138;2024-02-04T12:23:55;0.60;;;0.60;;
20084;SDS011;10202;48.474;9.138;2024-02-04T12:26:22;0.47;;;0.40;;
20084;SDS011;10202;48.474;9.138;2024-02-04T12:28:48;0.50;;;0.50;;
20084;SDS011;10202;48.474;9.138;2024-02-04T12:31:16;0.90;;;0.65;;
20084;SDS011;10202;48.474;9.138;2024-02-04T12:33:52;3.17;;;1.30;;
20084;SDS011;10202;48.474;9.138;2024-02-04T12:36:28;1.75;;;1.10;;
20084;SDS011;10202;48.474;9.138;2024-02-04T12:39:01;0.73;;;0.65;;
20084;SDS011;10202;48.474;9.138;2024-02-04T12:41:28;1.15;;;0.60;;
20084;SDS011;10202;48.474;9.138;2024-02-04T12:43:55;0.50;;;0.50;;
20084;SDS011;10202;48.474;9.138;2024-02-04T12:46:23;2.22;;;1.10;;
20084;SDS011;10202;48.474;9.138;2024-02-04T12:48:52;1.88;;;1.00;;
20084;SDS011;10202;48.474;9.138;2024-02-04T12:54:10;1.48;;;0.80;;
20084;SDS011;10202;48.474;9.138;2024-02-04T12:59:28;0.70;;;0.43;;
20084;SDS011;10202;48.474;9.138;2024-02-04T13:01:56;4.13;;;0.63;;
20084;SDS011;10202;48.474;9.138;2024-02-04T13:04:26;1.08;;;0.60;;
20084;SDS011;10202;48.474;9.138;2024-02-04T13:06:58;0.77;;;0.60;;
20084;SDS011;10202;48.474;9.138;2024-02-04T13:09:23;0.90;;;0.52;;
20084;SDS011;10202;48.474;9.138;2024-02-04T13:11:49;3.28;;;1.52;;
20084;SDS011;10202;48.474;9.138;2024-02-04T13:14:15;0.57;;;0.57;;
20084;SDS011;10202;48.474;9.138;2024-02-04T13:16:41;0.95;;;0.50;;
20084;SDS011;10202;48.474;9.138;2024-02-04T13:19:06;1.20;;;0.90;;
20084;SDS011;10202;48.474;9.138;2024-02-04T13:21:32;2.88;;;1.45;;
20084;SDS011;10202;48.474;9.138;2024-02-04T13:24:00;3.15;;;1.60;;
20084;SDS011;10202;48.474;9.138;2024-02-04T13:26:26;12.05;;;4.25;;
20084;SDS011;10202;48.474;9.138;2024-02-04T13:28:51;2.88;;;1.35;;
20084;SDS011;10202;48.474;9.138;2024-02-04T13:31:17;2.00;;;1.10;;
20084;SDS011;10202;48.474;9.138;2024-02-04T13:33:45;0.70;;;0.70;;
20084;SDS011;10202;48.474;9.138;2024-02-04T13:36:10;0.57;;;0.38;;
20084;SDS011;10202;48.474;9.138;2024-02-04T13:38:36;0.65;;;0.40;;
20084;SDS011;10202;48.474;9.138;2024-02-04T13:41:02;0.50;;;0.50;;
20084;SDS011;10202;48.474;9.138;2024-02-04T13:43:31;1.33;;;0.80;;
20084;SDS011;10202;48.474;9.138;2024-02-04T13:45:57;7.72;;;0.50;;
20084;SDS011;10202;48.474;9.138;2024-02-04T13:48:25;0.40;;;0.40;;
20084;SDS011;10202;48.474;9.138;2024-02-04T13:50:52;0.40;;;0.40;;
20084;SDS011;10202;48.474;9.138;2024-02-04T13:53:19;0.70;;;0.55;;
20084;SDS011;10202;48.474;9.138;2024-02-04T13:55:46;1.38;;;0.40;;
20084;SDS011;10202;48.474;9.138;2024-02-04T13:58:14;0.32;;;0.32;;
20084;SDS011;10202;48.474;9.138;2024-02-04T14:00:39;0.30;;;0.30;;
20084;SDS011;10202;48.474;9.138;2024-02-04T14:03:08;0.40;;;0.40;;
20084;SDS011;10202;48.474;9.138;2024-02-04T14:05:34;1.42;;;0.47;;
20084;SDS011;10202;48.474;9.138;2024-02-04T14:07:59;0.43;;;0.40;;
20084;SDS011;10202;48.474;9.138;2024-02-04T14:10:25;0.40;;;0.40;;
20084;SDS011;10202;48.474;9.138;2024-02-04T14:12:53;0.40;;;0.40;;
20084;SDS011;10202;48.474;9.138;2024-02-04T14:15:18;0.40;;;0.40;;
20084;SDS011;10202;48.474;9.138;2024-02-04T14:17:44;0.95;;;0.50;;
20084;SDS011;10202;48.474;9.138;2024-02-04T14:20:09;0.52;;;0.52;;
20084;SDS011;10202;48.474;9.138;2024-02-04T14:22:39;1.08;;;0.98;;
20084;SDS011;10202;48.474;9.138;2024-02-04T14:25:04;1.70;;;1.30;;
20084;SDS011;10202;48.474;9.138;2024-02-04T14:27:31;4.93;;;1.30;;
20084;SDS011;10202;48.474;9.138;2024-02-04T14:29:56;2.13;;;1.20;;
20084;SDS011;10202;48.474;9.138;2024-02-04T14:32:22;4.03;;;2.22;;
20084;SDS011;10202;48.474;9.138;2024-02-04T14:34:48;2.35;;;1.23;;
20084;SDS011;10202;48.474;9.138;2024-02-04T14:37:14;1.60;;;0.90;;
20084;SDS011;10202;48.474;9.138;2024-02-04T14:39:40;0.88;;;0.80;;
20084;SDS011;10202;48.474;9.138;2024-02-04T14:42:08;0.95;;;0.60;;
20084;SDS011;10202;48.474;9.138;2024-02-04T14:44:34;1.60;;;0.90;;
20084;SDS011;10202;48.474;9.138;2024-02-04T14:46:59;6.18;;;0.70;;
20084;SDS011;10202;48.474;9.138;2024-02-04T14:49:25;1.65;;;0.90;;
20084;SDS011;10202;48.474;9.138;2024-02-04T14:51:52;1.25;;;0.93;;
20084;SDS011;10202;48.474;9.138;2024-02-04T14:54:20;0.80;;;0.80;;
20084;SDS011;10202;48.474;9.138;2024-02-04T14:56:49;1.35;;;0.88;;
20084;SDS011;10202;48.474;9.138;2024-02-04T14:59:16;0.60;;;0.60;;
20084;SDS011;10202;48.474;9.138;2024-02-04T15:01:44;0.73;;;0.52;;
20084;SDS011;10202;48.474;9.138;2024-02-04T15:04:13;1.40;;;0.75;;
20084;SDS011;10202;48.474;9.138;2024-02-04T15:06:40;0.50;;;0.50;;
20084;SDS011;10202;48.474;9.138;2024-02-04T15:09:06;0.50;;;0.50;;